Jetmore, Kansas
Current Conditions -  °F | °C
As of 1:52 PM on Sunday 23 Nov 2014 (Local Time) from KDDC Reporting Station
Overcast Overcast  
Wind Chill: 34°   Ceiling: 7500
Heat Index: 43°   Visibility: 10mi
Dew Point: 34°   Wind: 23mph
Humidity: 71%   Direction: 350°N
Pressure: 29.57"   Gusts: 31mph
Location:  38.08°N, 99.89°W
Report Text: KDDC 231952Z AUTO 35020G27KT 10SM OVC075 06/01 A2957 RMK AO2 PK WND 36033/1910 RAE1853 SLP010 P0000 T00610011
Loading
Personal Weather Stations






























Interactive Weather Map New forecast layout! Learn more

10-Day Weather Forecast

Advertisements
Track Severe Weather on mobile